sensor_id;sensor_type;location;lat;lon;timestamp;pressure;altitude;pressure_sealevel;temperature;humidity
57248;BME280;55809;46.618;10.764;2022-08-19T00:00:41;92672.75;;;16.71;97.92
57248;BME280;55809;46.618;10.764;2022-08-19T00:03:08;92669.06;;;16.78;97.72
57248;BME280;55809;46.618;10.764;2022-08-19T00:05:36;92651.44;;;16.92;95.34
57248;BME280;55809;46.618;10.764;2022-08-19T00:08:03;92657.72;;;17.01;93.89
57248;BME280;55809;46.618;10.764;2022-08-19T00:10:30;92661.56;;;16.91;95.44
57248;BME280;55809;46.618;10.764;2022-08-19T00:12:57;92674.16;;;16.88;96.50
57248;BME280;55809;46.618;10.764;2022-08-19T00:15:23;92666.91;;;16.95;96.28
57248;BME280;55809;46.618;10.764;2022-08-19T00:17:50;92669.25;;;16.83;97.36
57248;BME280;55809;46.618;10.764;2022-08-19T00:20:18;92655.19;;;16.85;97.56
57248;BME280;55809;46.618;10.764;2022-08-19T00:22:48;92663.50;;;16.81;98.13
57248;BME280;55809;46.618;10.764;2022-08-19T00:25:15;92665.03;;;16.70;99.78
57248;BME280;55809;46.618;10.764;2022-08-19T00:27:44;92659.22;;;16.58;100.00
57248;BME280;55809;46.618;10.764;2022-08-19T00:30:12;92662.94;;;16.52;100.00
57248;BME280;55809;46.618;10.764;2022-08-19T00:32:39;92673.06;;;16.51;100.00
57248;BME280;55809;46.618;10.764;2022-08-19T00:35:06;92658.13;;;16.56;100.00
57248;BME280;55809;46.618;10.764;2022-08-19T00:37:34;92665.72;;;16.61;100.00
57248;BME280;55809;46.618;10.764;2022-08-19T00:40:05;92660.47;;;16.67;100.00
57248;BME280;55809;46.618;10.764;2022-08-19T00:42:32;92665.38;;;16.72;100.00
57248;BME280;55809;46.618;10.764;2022-08-19T00:44:59;92648.47;;;16.77;100.00
57248;BME280;55809;46.618;10.764;2022-08-19T00:47:26;92646.06;;;16.79;99.36
57248;BME280;55809;46.618;10.764;2022-08-19T00:49:55;92651.06;;;16.80;99.16
57248;BME280;55809;46.618;10.764;2022-08-19T00:52:23;92656.09;;;16.82;99.01
57248;BME280;55809;46.618;10.764;2022-08-19T00:54:54;92648.34;;;16.80;99.20
57248;BME280;55809;46.618;10.764;2022-08-19T00:57:24;92656.09;;;16.82;98.97
57248;BME280;55809;46.618;10.764;2022-08-19T00:59:53;92650.94;;;16.84;98.71
57248;BME280;55809;46.618;10.764;2022-08-19T01:02:20;92656.25;;;16.87;98.11
57248;BME280;55809;46.618;10.764;2022-08-19T01:04:46;92650.66;;;16.91;97.72
57248;BME280;55809;46.618;10.764;2022-08-19T01:07:13;92647.94;;;16.91;97.63
57248;BME280;55809;46.618;10.764;2022-08-19T01:09:40;92643.56;;;16.94;97.49
57248;BME280;55809;46.618;10.764;2022-08-19T01:12:07;92637.38;;;16.93;96.96
57248;BME280;55809;46.618;10.764;2022-08-19T01:14:36;92645.34;;;16.87;97.29
57248;BME280;55809;46.618;10.764;2022-08-19T01:17:04;92647.44;;;16.83;97.57
57248;BME280;55809;46.618;10.764;2022-08-19T01:19:33;92635.03;;;16.82;97.68
57248;BME280;55809;46.618;10.764;2022-08-19T01:22:02;92635.78;;;16.83;97.70
57248;BME280;55809;46.618;10.764;2022-08-19T01:24:31;92644.72;;;16.83;97.79
57248;BME280;55809;46.618;10.764;2022-08-19T01:26:58;92647.31;;;16.87;97.31
57248;BME280;55809;46.618;10.764;2022-08-19T01:29:25;92643.41;;;16.88;97.23
57248;BME280;55809;46.618;10.764;2022-08-19T01:31:51;92639.75;;;16.91;97.24
57248;BME280;55809;46.618;10.764;2022-08-19T01:34:18;92625.38;;;16.91;97.27
57248;BME280;55809;46.618;10.764;2022-08-19T01:36:45;92617.94;;;16.91;97.16
57248;BME280;55809;46.618;10.764;2022-08-19T01:39:15;92608.75;;;16.98;96.61
57248;BME280;55809;46.618;10.764;2022-08-19T01:41:44;92590.53;;;16.85;97.10
57248;BME280;55809;46.618;10.764;2022-08-19T01:44:19;92573.28;;;16.88;97.23
57248;BME280;55809;46.618;10.764;2022-08-19T01:46:49;92574.78;;;16.90;97.07
57248;BME280;55809;46.618;10.764;2022-08-19T01:49:17;92582.50;;;16.91;96.82
57248;BME280;55809;46.618;10.764;2022-08-19T01:51:44;92597.84;;;16.98;95.97
57248;BME280;55809;46.618;10.764;2022-08-19T01:54:12;92598.38;;;16.83;96.71
57248;BME280;55809;46.618;10.764;2022-08-19T01:56:40;92595.28;;;16.72;97.72
57248;BME280;55809;46.618;10.764;2022-08-19T01:59:10;92580.84;;;16.62;99.12
57248;BME280;55809;46.618;10.764;2022-08-19T02:01:38;92577.59;;;16.55;100.00
57248;BME280;55809;46.618;10.764;2022-08-19T02:04:05;92587.16;;;16.59;100.00
57248;BME280;55809;46.618;10.764;2022-08-19T02:06:32;92586.16;;;16.66;99.16
57248;BME280;55809;46.618;10.764;2022-08-19T02:08:59;92579.56;;;16.54;100.00
57248;BME280;55809;46.618;10.764;2022-08-19T02:11:27;92586.97;;;16.54;100.00
57248;BME280;55809;46.618;10.764;2022-08-19T02:13:56;92604.06;;;16.54;100.00
57248;BME280;55809;46.618;10.764;2022-08-19T02:16:25;92621.97;;;16.55;100.00
57248;BME280;55809;46.618;10.764;2022-08-19T02:18:52;92631.06;;;16.61;100.00
57248;BME280;55809;46.618;10.764;2022-08-19T02:21:20;92623.84;;;16.68;100.00
57248;BME280;55809;46.618;10.764;2022-08-19T02:23:47;92620.09;;;16.74;100.00
57248;BME280;55809;46.618;10.764;2022-08-19T02:26:14;92619.56;;;16.79;99.58
57248;BME280;55809;46.618;10.764;2022-08-19T02:28:41;92614.44;;;16.81;99.04
57248;BME280;55809;46.618;10.764;2022-08-19T02:31:09;92625.44;;;16.78;99.22
57248;BME280;55809;46.618;10.764;2022-08-19T02:33:37;92618.34;;;16.80;99.07
57248;BME280;55809;46.618;10.764;2022-08-19T02:36:04;92605.47;;;16.81;98.96
57248;BME280;55809;46.618;10.764;2022-08-19T02:38:31;92597.75;;;16.79;98.78
57248;BME280;55809;46.618;10.764;2022-08-19T02:40:58;92587.75;;;16.76;98.15
57248;BME280;55809;46.618;10.764;2022-08-19T02:43:26;92583.63;;;16.72;98.10
57248;BME280;55809;46.618;10.764;2022-08-19T02:45:53;92557.38;;;16.65;98.62
57248;BME280;55809;46.618;10.764;2022-08-19T02:48:21;92545.91;;;16.70;98.43
57248;BME280;55809;46.618;10.764;2022-08-19T02:50:50;92532.72;;;16.69;98.74
57248;BME280;55809;46.618;10.764;2022-08-19T02:53:20;92511.44;;;16.76;97.74
57248;BME280;55809;46.618;10.764;2022-08-19T02:55:48;92503.16;;;16.89;95.38
57248;BME280;55809;46.618;10.764;2022-08-19T02:58:16;92500.72;;;16.82;96.81
57248;BME280;55809;46.618;10.764;2022-08-19T03:00:43;92495.91;;;16.64;97.97
57248;BME280;55809;46.618;10.764;2022-08-19T03:03:10;92493.13;;;16.55;98.83
57248;BME280;55809;46.618;10.764;2022-08-19T03:05:37;92489.50;;;16.49;99.43
57248;BME280;55809;46.618;10.764;2022-08-19T03:08:05;92484.78;;;16.49;99.51
57248;BME280;55809;46.618;10.764;2022-08-19T03:10:32;92492.50;;;16.51;99.55
57248;BME280;55809;46.618;10.764;2022-08-19T03:13:00;92476.47;;;16.53;99.50
57248;BME280;55809;46.618;10.764;2022-08-19T03:15:26;92473.47;;;16.60;98.14
57248;BME280;55809;46.618;10.764;2022-08-19T03:17:53;92475.44;;;16.59;97.97
57248;BME280;55809;46.618;10.764;2022-08-19T03:20:20;92463.28;;;16.51;98.89
57248;BME280;55809;46.618;10.764;2022-08-19T03:22:46;92467.09;;;16.54;98.59
57248;BME280;55809;46.618;10.764;2022-08-19T03:25:15;92457.41;;;16.53;98.33
57248;BME280;55809;46.618;10.764;2022-08-19T03:27:42;92463.63;;;16.53;98.58
57248;BME280;55809;46.618;10.764;2022-08-19T03:30:09;92468.00;;;16.51;98.46
57248;BME280;55809;46.618;10.764;2022-08-19T03:32:36;92469.81;;;16.54;98.39
57248;BME280;55809;46.618;10.764;2022-08-19T03:35:03;92482.22;;;16.55;98.46
57248;BME280;55809;46.618;10.764;2022-08-19T03:37:31;92491.03;;;16.59;97.95
57248;BME280;55809;46.618;10.764;2022-08-19T03:39:57;92501.06;;;16.62;97.56
57248;BME280;55809;46.618;10.764;2022-08-19T03:42:25;92493.94;;;16.64;97.23
57248;BME280;55809;46.618;10.764;2022-08-19T03:44:53;92494.44;;;16.72;95.81
57248;BME280;55809;46.618;10.764;2022-08-19T03:47:20;92501.84;;;16.72;95.98
57248;BME280;55809;46.618;10.764;2022-08-19T03:49:47;92496.50;;;16.68;96.07
57248;BME280;55809;46.618;10.764;2022-08-19T03:52:13;92480.44;;;16.61;96.56
57248;BME280;55809;46.618;10.764;2022-08-19T03:54:40;92482.88;;;16.59;96.21
57248;BME280;55809;46.618;10.764;2022-08-19T03:57:07;92479.97;;;16.53;96.71
57248;BME280;55809;46.618;10.764;2022-08-19T03:59:36;92473.31;;;16.54;96.60
57248;BME280;55809;46.618;10.764;2022-08-19T04:02:06;92471.66;;;16.57;96.13
57248;BME280;55809;46.618;10.764;2022-08-19T04:04:34;92483.16;;;16.61;95.48
57248;BME280;55809;46.618;10.764;2022-08-19T04:07:00;92470.19;;;16.65;95.06
57248;BME280;55809;46.618;10.764;2022-08-19T04:09:27;92453.50;;;16.63;95.35
57248;BME280;55809;46.618;10.764;2022-08-19T04:11:56;92442.91;;;16.56;96.14
57248;BME280;55809;46.618;10.764;2022-08-19T04:14:24;92450.13;;;16.50;96.14
57248;BME280;55809;46.618;10.764;2022-08-19T04:16:52;92454.78;;;16.40;96.67
57248;BME280;55809;46.618;10.764;2022-08-19T04:19:19;92470.03;;;16.37;96.14
57248;BME280;55809;46.618;10.764;2022-08-19T04:21:49;92483.53;;;16.41;95.83
57248;BME280;55809;46.618;10.764;2022-08-19T04:24:16;92487.00;;;16.41;96.34
57248;BME280;55809;46.618;10.764;2022-08-19T04:26:43;92493.84;;;16.46;95.49
57248;BME280;55809;46.618;10.764;2022-08-19T04:29:11;92483.72;;;16.47;95.54
57248;BME280;55809;46.618;10.764;2022-08-19T04:31:38;92505.38;;;16.50;95.62
57248;BME280;55809;46.618;10.764;2022-08-19T04:34:08;92513.09;;;16.52;96.06
57248;BME280;55809;46.618;10.764;2022-08-19T04:36:36;92521.91;;;16.56;96.33
57248;BME280;55809;46.618;10.764;2022-08-19T04:39:05;92523.00;;;16.58;95.45
57248;BME280;55809;46.618;10.764;2022-08-19T04:41:32;92514.81;;;16.58;95.01
57248;BME280;55809;46.618;10.764;2022-08-19T04:44:16;92523.75;;;16.68;93.81
57248;BME280;55809;46.618;10.764;2022-08-19T04:46:44;92521.19;;;16.64;94.61
57248;BME280;55809;46.618;10.764;2022-08-19T04:49:12;92531.19;;;16.68;94.08
57248;BME280;55809;46.618;10.764;2022-08-19T04:51:39;92529.09;;;16.72;93.51
57248;BME280;55809;46.618;10.764;2022-08-19T04:54:07;92523.66;;;16.72;93.97
57248;BME280;55809;46.618;10.764;2022-08-19T04:56:33;92519.72;;;16.73;94.38
57248;BME280;55809;46.618;10.764;2022-08-19T04:59:00;92525.50;;;16.75;94.33
57248;BME280;55809;46.618;10.764;2022-08-19T05:01:30;92521.88;;;16.78;93.55
57248;BME280;55809;46.618;10.764;2022-08-19T05:03:58;92518.41;;;16.77;94.00
57248;BME280;55809;46.618;10.764;2022-08-19T05:06:27;92521.22;;;16.74;94.93
57248;BME280;55809;46.618;10.764;2022-08-19T05:08:57;92507.88;;;16.67;95.74
57248;BME280;55809;46.618;10.764;2022-08-19T05:11:25;92506.03;;;16.63;96.06
57248;BME280;55809;46.618;10.764;2022-08-19T05:13:53;92512.84;;;16.59;95.57
57248;BME280;55809;46.618;10.764;2022-08-19T05:16:20;92505.69;;;16.52;96.38
57248;BME280;55809;46.618;10.764;2022-08-19T05:18:48;92506.59;;;16.49;96.35
57248;BME280;55809;46.618;10.764;2022-08-19T05:21:34;92517.78;;;16.51;96.34
57248;BME280;55809;46.618;10.764;2022-08-19T05:24:18;92512.59;;;16.44;97.06
57248;BME280;55809;46.618;10.764;2022-08-19T05:26:46;92502.28;;;16.39;96.97
57248;BME280;55809;46.618;10.764;2022-08-19T05:29:14;92507.28;;;16.40;96.22
57248;BME280;55809;46.618;10.764;2022-08-19T05:31:41;92500.75;;;16.38;96.51
57248;BME280;55809;46.618;10.764;2022-08-19T05:34:08;92497.16;;;16.41;96.60
57248;BME280;55809;46.618;10.764;2022-08-19T05:36:38;92500.69;;;16.51;95.09
57248;BME280;55809;46.618;10.764;2022-08-19T05:39:05;92498.34;;;16.40;95.64
57248;BME280;55809;46.618;10.764;2022-08-19T05:41:32;92501.69;;;16.44;94.61
57248;BME280;55809;46.618;10.764;2022-08-19T05:44:00;92512.94;;;16.46;94.60
57248;BME280;55809;46.618;10.764;2022-08-19T05:46:27;92513.09;;;16.52;93.81
57248;BME280;55809;46.618;10.764;2022-08-19T05:48:54;92515.72;;;16.55;94.23
57248;BME280;55809;46.618;10.764;2022-08-19T05:51:21;92519.81;;;16.60;94.23
57248;BME280;55809;46.618;10.764;2022-08-19T05:53:50;92522.88;;;16.71;93.20
57248;BME280;55809;46.618;10.764;2022-08-19T05:56:17;92534.56;;;16.72;92.68
57248;BME280;55809;46.618;10.764;2022-08-19T05:58:45;92537.19;;;16.75;92.34
57248;BME280;55809;46.618;10.764;2022-08-19T06:01:13;92551.44;;;16.79;92.59
57248;BME280;55809;46.618;10.764;2022-08-19T06:03:40;92552.03;;;16.83;94.01
57248;BME280;55809;46.618;10.764;2022-08-19T06:06:07;92548.91;;;16.94;91.86
57248;BME280;55809;46.618;10.764;2022-08-19T06:08:34;92554.63;;;16.87;91.83
57248;BME280;55809;46.618;10.764;2022-08-19T06:11:15;92544.81;;;16.90;91.92
57248;BME280;55809;46.618;10.764;2022-08-19T06:13:42;92548.78;;;16.98;93.26
57248;BME280;55809;46.618;10.764;2022-08-19T06:16:10;92546.09;;;17.07;93.07
57248;BME280;55809;46.618;10.764;2022-08-19T06:18:36;92551.56;;;17.16;92.06
57248;BME280;55809;46.618;10.764;2022-08-19T06:21:03;92540.38;;;17.23;92.38
57248;BME280;55809;46.618;10.764;2022-08-19T06:23:30;92542.28;;;17.45;92.29
57248;BME280;55809;46.618;10.764;2022-08-19T06:25:57;92547.22;;;18.14;88.67
57248;BME280;55809;46.618;10.764;2022-08-19T06:28:25;92542.41;;;18.88;86.90
57248;BME280;55809;46.618;10.764;2022-08-19T06:30:52;92532.53;;;19.33;83.21
57248;BME280;55809;46.618;10.764;2022-08-19T06:33:18;92526.25;;;20.14;80.09
57248;BME280;55809;46.618;10.764;2022-08-19T06:35:45;92518.19;;;20.79;75.42
57248;BME280;55809;46.618;10.764;2022-08-19T06:38:12;92537.19;;;21.27;73.44
57248;BME280;55809;46.618;10.764;2022-08-19T06:40:38;92544.66;;;21.12;72.71
57248;BME280;55809;46.618;10.764;2022-08-19T06:43:05;92546.19;;;21.42;71.45
57248;BME280;55809;46.618;10.764;2022-08-19T06:45:33;92546.84;;;21.93;70.02
57248;BME280;55809;46.618;10.764;2022-08-19T06:48:03;92548.09;;;22.33;69.46
57248;BME280;55809;46.618;10.764;2022-08-19T06:50:30;92551.19;;;22.66;67.90
57248;BME280;55809;46.618;10.764;2022-08-19T06:52:57;92548.66;;;22.89;65.17
57248;BME280;55809;46.618;10.764;2022-08-19T06:55:23;92549.94;;;23.14;64.96
57248;BME280;55809;46.618;10.764;2022-08-19T06:57:50;92550.63;;;23.40;64.38
57248;BME280;55809;46.618;10.764;2022-08-19T07:00:18;92558.13;;;23.40;62.88
57248;BME280;55809;46.618;10.764;2022-08-19T07:02:46;92556.88;;;23.41;64.58
57248;BME280;55809;46.618;10.764;2022-08-19T07:05:14;92547.47;;;23.59;63.35
57248;BME280;55809;46.618;10.764;2022-08-19T07:07:42;92544.66;;;23.85;62.66
57248;BME280;55809;46.618;10.764;2022-08-19T07:10:09;92545.44;;;23.91;63.11
57248;BME280;55809;46.618;10.764;2022-08-19T07:12:35;92539.00;;;24.00;62.36
57248;BME280;55809;46.618;10.764;2022-08-19T07:15:03;92533.59;;;24.33;61.13
57248;BME280;55809;46.618;10.764;2022-08-19T07:17:30;92514.66;;;24.80;58.06
57248;BME280;55809;46.618;10.764;2022-08-19T07:19:59;92504.66;;;24.89;58.18
57248;BME280;55809;46.618;10.764;2022-08-19T07:22:25;92508.91;;;25.07;57.20
57248;BME280;55809;46.618;10.764;2022-08-19T07:24:52;92506.44;;;25.25;56.96
57248;BME280;55809;46.618;10.764;2022-08-19T07:27:19;92497.41;;;25.31;56.36
57248;BME280;55809;46.618;10.764;2022-08-19T07:29:45;92501.91;;;25.45;55.54
57248;BME280;55809;46.618;10.764;2022-08-19T07:32:12;92506.38;;;25.70;55.35
57248;BME280;55809;46.618;10.764;2022-08-19T07:34:39;92499.63;;;25.49;55.57
57248;BME280;55809;46.618;10.764;2022-08-19T07:37:07;92504.16;;;25.01;56.90
57248;BME280;55809;46.618;10.764;2022-08-19T07:39:35;92504.94;;;25.13;56.26
57248;BME280;55809;46.618;10.764;2022-08-19T07:42:04;92497.91;;;25.18;57.85
57248;BME280;55809;46.618;10.764;2022-08-19T07:44:32;92498.38;;;25.39;56.56
57248;BME280;55809;46.618;10.764;2022-08-19T07:46:59;92497.59;;;25.83;56.34
57248;BME280;55809;46.618;10.764;2022-08-19T07:49:27;92506.50;;;26.23;54.91
57248;BME280;55809;46.618;10.764;2022-08-19T07:51:54;92513.50;;;26.82;51.55
57248;BME280;55809;46.618;10.764;2022-08-19T07:54:24;92524.63;;;27.18;50.65
57248;BME280;55809;46.618;10.764;2022-08-19T07:56:52;92517.63;;;26.64;52.97
57248;BME280;55809;46.618;10.764;2022-08-19T07:59:19;92528.00;;;26.47;52.75
57248;BME280;55809;46.618;10.764;2022-08-19T08:01:46;92531.41;;;26.76;52.45
57248;BME280;55809;46.618;10.764;2022-08-19T08:04:13;92528.09;;;26.83;52.49
57248;BME280;55809;46.618;10.764;2022-08-19T08:06:57;92518.69;;;27.33;50.31
57248;BME280;55809;46.618;10.764;2022-08-19T08:09:43;92517.59;;;27.72;48.97
57248;BME280;55809;46.618;10.764;2022-08-19T08:12:11;92503.13;;;27.85;49.36
57248;BME280;55809;46.618;10.764;2022-08-19T08:14:40;92511.03;;;27.99;48.34
57248;BME280;55809;46.618;10.764;2022-08-19T08:17:07;92520.69;;;27.63;49.21
57248;BME280;55809;46.618;10.764;2022-08-19T08:19:35;92524.94;;;27.39;49.96
57248;BME280;55809;46.618;10.764;2022-08-19T08:22:02;92520.91;;;27.95;47.60
57248;BME280;55809;46.618;10.764;2022-08-19T08:24:31;92511.22;;;28.07;46.45
57248;BME280;55809;46.618;10.764;2022-08-19T08:27:00;92500.94;;;28.21;46.62
57248;BME280;55809;46.618;10.764;2022-08-19T08:29:29;92495.94;;;28.38;46.59
57248;BME280;55809;46.618;10.764;2022-08-19T08:31:56;92504.72;;;28.23;46.41
57248;BME280;55809;46.618;10.764;2022-08-19T08:34:23;92493.97;;;28.33;43.32
57248;BME280;55809;46.618;10.764;2022-08-19T08:36:50;92490.78;;;28.48;42.54
57248;BME280;55809;46.618;10.764;2022-08-19T08:39:18;92487.91;;;27.91;41.52
57248;BME280;55809;46.618;10.764;2022-08-19T08:41:47;92494.91;;;27.13;45.49
57248;BME280;55809;46.618;10.764;2022-08-19T08:44:22;92488.13;;;26.73;47.59
57248;BME280;55809;46.618;10.764;2022-08-19T08:46:50;92500.66;;;27.21;44.12
57248;BME280;55809;46.618;10.764;2022-08-19T08:49:25;92493.91;;;27.41;44.74
57248;BME280;55809;46.618;10.764;2022-08-19T08:51:57;92493.44;;;27.67;44.39
57248;BME280;55809;46.618;10.764;2022-08-19T08:54:28;92490.66;;;27.67;43.82
57248;BME280;55809;46.618;10.764;2022-08-19T08:56:56;92498.22;;;27.06;45.54
57248;BME280;55809;46.618;10.764;2022-08-19T08:59:26;92505.06;;;26.99;45.66
57248;BME280;55809;46.618;10.764;2022-08-19T09:01:57;92514.31;;;26.72;46.76
57248;BME280;55809;46.618;10.764;2022-08-19T09:04:24;92519.09;;;26.71;45.97
57248;BME280;55809;46.618;10.764;2022-08-19T09:06:51;92515.19;;;26.44;46.88
57248;BME280;55809;46.618;10.764;2022-08-19T09:09:23;92519.34;;;26.09;46.98
57248;BME280;55809;46.618;10.764;2022-08-19T09:11:55;92515.13;;;25.97;47.84
57248;BME280;55809;46.618;10.764;2022-08-19T09:14:32;92505.63;;;25.70;48.81
57248;BME280;55809;46.618;10.764;2022-08-19T09:17:00;92512.56;;;26.10;46.51
57248;BME280;55809;46.618;10.764;2022-08-19T09:19:28;92513.31;;;26.16;46.87
57248;BME280;55809;46.618;10.764;2022-08-19T09:21:56;92505.63;;;26.51;46.41
57248;BME280;55809;46.618;10.764;2022-08-19T09:24:25;92508.94;;;26.38;45.27
57248;BME280;55809;46.618;10.764;2022-08-19T09:26:52;92505.75;;;26.23;45.87
57248;BME280;55809;46.618;10.764;2022-08-19T09:29:18;92508.38;;;26.45;46.38
57248;BME280;55809;46.618;10.764;2022-08-19T09:31:47;92512.16;;;26.53;46.25
57248;BME280;55809;46.618;10.764;2022-08-19T09:34:14;92517.41;;;26.57;45.79
57248;BME280;55809;46.618;10.764;2022-08-19T09:36:41;92511.13;;;26.56;45.60
57248;BME280;55809;46.618;10.764;2022-08-19T09:39:08;92508.94;;;26.38;44.97
57248;BME280;55809;46.618;10.764;2022-08-19T09:41:35;92506.97;;;26.27;46.00
57248;BME280;55809;46.618;10.764;2022-08-19T09:44:02;92504.31;;;25.99;48.28
57248;BME280;55809;46.618;10.764;2022-08-19T09:46:28;92505.38;;;25.73;50.15
57248;BME280;55809;46.618;10.764;2022-08-19T09:48:59;92497.34;;;25.64;49.23
57248;BME280;55809;46.618;10.764;2022-08-19T09:51:26;92498.63;;;25.58;49.62
57248;BME280;55809;46.618;10.764;2022-08-19T09:53:55;92494.63;;;25.47;49.43
57248;BME280;55809;46.618;10.764;2022-08-19T09:56:24;92492.09;;;25.49;50.24
57248;BME280;55809;46.618;10.764;2022-08-19T09:58:51;92490.78;;;25.73;50.00
57248;BME280;55809;46.618;10.764;2022-08-19T10:01:18;92484.19;;;25.99;48.22
57248;BME280;55809;46.618;10.764;2022-08-19T10:03:46;92482.72;;;25.92;48.92
57248;BME280;55809;46.618;10.764;2022-08-19T10:06:17;92475.66;;;25.96;49.42
57248;BME280;55809;46.618;10.764;2022-08-19T10:08:44;92489.22;;;26.00;49.39
57248;BME280;55809;46.618;10.764;2022-08-19T10:11:12;92492.53;;;25.87;49.25
57248;BME280;55809;46.618;10.764;2022-08-19T10:13:41;92485.94;;;26.07;48.48
57248;BME280;55809;46.618;10.764;2022-08-19T10:16:09;92481.13;;;26.13;50.01
57248;BME280;55809;46.618;10.764;2022-08-19T10:18:37;92486.72;;;25.80;48.89
57248;BME280;55809;46.618;10.764;2022-08-19T10:21:05;92485.81;;;25.60;48.75
57248;BME280;55809;46.618;10.764;2022-08-19T10:23:35;92479.78;;;25.50;49.73
57248;BME280;55809;46.618;10.764;2022-08-19T10:26:03;92482.56;;;25.50;49.51
57248;BME280;55809;46.618;10.764;2022-08-19T10:28:31;92469.50;;;25.45;50.81
57248;BME280;55809;46.618;10.764;2022-08-19T10:30:58;92474.53;;;25.36;51.49
57248;BME280;55809;46.618;10.764;2022-08-19T10:33:24;92472.78;;;24.99;51.21
57248;BME280;55809;46.618;10.764;2022-08-19T10:35:58;92476.53;;;25.35;50.24
57248;BME280;55809;46.618;10.764;2022-08-19T10:38:25;92463.69;;;25.60;51.00
57248;BME280;55809;46.618;10.764;2022-08-19T10:40:53;92459.34;;;25.87;48.21
57248;BME280;55809;46.618;10.764;2022-08-19T10:43:20;92450.00;;;26.02;47.07
57248;BME280;55809;46.618;10.764;2022-08-19T10:45:48;92447.56;;;26.34;47.57
57248;BME280;55809;46.618;10.764;2022-08-19T10:48:17;92444.22;;;26.52;46.19
57248;BME280;55809;46.618;10.764;2022-08-19T10:50:44;92438.16;;;26.54;45.20
57248;BME280;55809;46.618;10.764;2022-08-19T10:53:28;92438.25;;;26.37;45.86
57248;BME280;55809;46.618;10.764;2022-08-19T10:55:56;92430.06;;;26.61;45.91
57248;BME280;55809;46.618;10.764;2022-08-19T10:58:41;92428.53;;;26.96;45.71
57248;BME280;55809;46.618;10.764;2022-08-19T11:01:08;92416.97;;;27.28;43.98
57248;BME280;55809;46.618;10.764;2022-08-19T11:03:35;92413.31;;;27.39;42.83
57248;BME280;55809;46.618;10.764;2022-08-19T11:06:04;92417.34;;;27.38;42.90
57248;BME280;55809;46.618;10.764;2022-08-19T11:08:31;92413.19;;;27.50;44.39
57248;BME280;55809;46.618;10.764;2022-08-19T11:11:00;92412.63;;;27.81;41.92
57248;BME280;55809;46.618;10.764;2022-08-19T11:13:28;92413.09;;;27.86;43.44
57248;BME280;55809;46.618;10.764;2022-08-19T11:15:59;92414.56;;;27.87;43.03
57248;BME280;55809;46.618;10.764;2022-08-19T11:18:26;92407.84;;;28.01;43.38
57248;BME280;55809;46.618;10.764;2022-08-19T11:20:53;92392.09;;;28.28;43.00
57248;BME280;55809;46.618;10.764;2022-08-19T11:23:20;92396.31;;;28.35;42.03
57248;BME280;55809;46.618;10.764;2022-08-19T11:25:47;92402.16;;;28.31;41.33
57248;BME280;55809;46.618;10.764;2022-08-19T11:28:15;92394.34;;;28.29;40.75
57248;BME280;55809;46.618;10.764;2022-08-19T11:30:42;92392.19;;;28.41;39.87
57248;BME280;55809;46.618;10.764;2022-08-19T11:33:08;92390.91;;;28.04;41.39
57248;BME280;55809;46.618;10.764;2022-08-19T11:35:38;92381.63;;;28.21;42.02
57248;BME280;55809;46.618;10.764;2022-08-19T11:38:05;92385.22;;;28.16;42.49
57248;BME280;55809;46.618;10.764;2022-08-19T11:40:31;92381.69;;;28.15;39.82
57248;BME280;55809;46.618;10.764;2022-08-19T11:42:59;92382.44;;;27.78;41.02
57248;BME280;55809;46.618;10.764;2022-08-19T11:45:27;92376.41;;;27.49;42.22
57248;BME280;55809;46.618;10.764;2022-08-19T11:47:54;92389.00;;;27.26;42.71
57248;BME280;55809;46.618;10.764;2022-08-19T11:50:21;92372.00;;;27.10;41.93
57248;BME280;55809;46.618;10.764;2022-08-19T11:52:48;92381.31;;;26.83;42.54
57248;BME280;55809;46.618;10.764;2022-08-19T11:55:15;92381.09;;;26.81;42.92
57248;BME280;55809;46.618;10.764;2022-08-19T11:57:42;92379.03;;;26.87;42.63
57248;BME280;55809;46.618;10.764;2022-08-19T12:00:09;92374.28;;;26.82;43.43
57248;BME280;55809;46.618;10.764;2022-08-19T12:02:39;92367.56;;;26.72;43.46
57248;BME280;55809;46.618;10.764;2022-08-19T12:05:06;92362.59;;;26.64;43.58
57248;BME280;55809;46.618;10.764;2022-08-19T12:07:33;92368.13;;;26.64;44.27
57248;BME280;55809;46.618;10.764;2022-08-19T12:10:01;92363.13;;;26.63;42.44
57248;BME280;55809;46.618;10.764;2022-08-19T12:12:28;92365.06;;;26.68;43.71
57248;BME280;55809;46.618;10.764;2022-08-19T12:14:54;92359.88;;;26.59;43.22
57248;BME280;55809;46.618;10.764;2022-08-19T12:17:24;92361.13;;;26.58;42.66
57248;BME280;55809;46.618;10.764;2022-08-19T12:19:52;92361.69;;;26.51;42.24
57248;BME280;55809;46.618;10.764;2022-08-19T12:22:19;92352.13;;;26.52;43.28
57248;BME280;55809;46.618;10.764;2022-08-19T12:24:46;92352.66;;;26.50;43.02
57248;BME280;55809;46.618;10.764;2022-08-19T12:27:15;92355.13;;;26.54;41.75
57248;BME280;55809;46.618;10.764;2022-08-19T12:29:42;92346.13;;;26.42;43.13
57248;BME280;55809;46.618;10.764;2022-08-19T12:32:08;92352.69;;;26.39;43.83
57248;BME280;55809;46.618;10.764;2022-08-19T12:34:35;92344.91;;;26.37;44.41
57248;BME280;55809;46.618;10.764;2022-08-19T12:37:04;92342.13;;;26.43;43.85
57248;BME280;55809;46.618;10.764;2022-08-19T12:39:33;92324.28;;;26.38;44.92
57248;BME280;55809;46.618;10.764;2022-08-19T12:42:00;92335.88;;;26.37;43.44
57248;BME280;55809;46.618;10.764;2022-08-19T12:44:27;92339.38;;;26.37;44.84
57248;BME280;55809;46.618;10.764;2022-08-19T12:46:54;92342.19;;;26.32;44.56
57248;BME280;55809;46.618;10.764;2022-08-19T12:49:20;92335.41;;;26.33;45.16
57248;BME280;55809;46.618;10.764;2022-08-19T12:51:47;92319.00;;;26.35;43.48
57248;BME280;55809;46.618;10.764;2022-08-19T12:54:15;92333.09;;;26.37;42.97